Time;durP1;ratioP1;P1;durP2;ratioP2;P2;SDS_P1;SDS_P2;PMS_P1;PMS_P2;Temp;Humidity;BMP_temperature;BMP_pressure;BME280_temperature;BME280_humidity;BME280_pressure;Samples;Min_cycle;Max_cycle;Signal;HPM_P1;HPM_P2
2022/01/08 00:00:55;;;;;;;8.75;4.90;;;2.20;99.90;;;;;;5123438;27;20043;-64
2022/01/08 00:03:21;;;;;;;11.32;4.80;;;2.10;99.90;;;;;;5124059;27;20075;-64
2022/01/08 00:05:48;;;;;;;11.00;5.30;;;2.10;99.90;;;;;;5126251;27;20047;-64
2022/01/08 00:08:14;;;;;;;12.48;4.82;;;2.10;99.90;;;;;;5122094;27;20511;-64
2022/01/08 00:10:41;;;;;;;12.13;5.53;;;2.20;99.90;;;;;;5120692;27;20031;-64
2022/01/08 00:13:07;;;;;;;10.68;5.63;;;2.10;99.90;;;;;;5117332;27;20126;-64
2022/01/08 00:15:34;;;;;;;11.88;6.00;;;2.00;99.90;;;;;;5137692;27;20418;-64
2022/01/08 00:18:00;;;;;;;11.32;6.00;;;2.00;99.90;;;;;;5128942;27;20035;-64
2022/01/08 00:20:27;;;;;;;10.75;5.60;;;2.00;99.90;;;;;;5122952;27;20417;-64
2022/01/08 00:22:54;;;;;;;10.90;6.25;;;1.90;99.90;;;;;;5127811;27;20040;-64
2022/01/08 00:25:20;;;;;;;11.60;7.00;;;1.90;99.90;;;;;;5113545;28;20536;-64
2022/01/08 00:27:46;;;;;;;13.52;7.18;;;1.90;99.90;;;;;;5120248;27;20039;-64
2022/01/08 00:30:13;;;;;;;12.55;7.28;;;1.90;99.90;;;;;;5120303;27;20525;-64
2022/01/08 00:32:40;;;;;;;13.93;6.60;;;1.90;99.90;;;;;;5121423;27;20043;-64
2022/01/08 00:35:08;;;;;;;15.18;7.63;;;1.90;99.90;;;;;;5121810;27;20035;-64
2022/01/08 00:37:34;;;;;;;12.30;7.40;;;1.90;99.90;;;;;;5113418;27;20144;-64
2022/01/08 00:40:01;;;;;;;10.65;6.30;;;1.80;99.90;;;;;;5123765;27;20410;-64
2022/01/08 00:42:26;;;;;;;12.55;7.88;;;1.80;99.90;;;;;;5126694;27;20379;-64
2022/01/08 00:44:52;;;;;;;13.48;7.70;;;1.70;99.90;;;;;;5114623;27;20068;-64
2022/01/08 00:47:18;;;;;;;15.73;8.43;;;1.70;99.90;;;;;;5120315;27;20526;-64
2022/01/08 00:49:43;;;;;;;19.48;8.82;;;1.70;99.90;;;;;;5119166;27;20043;-64
2022/01/08 00:52:09;;;;;;;9.27;7.13;;;1.70;99.90;;;;;;5125133;27;20391;-64
2022/01/08 00:54:36;;;;;;;11.15;7.78;;;1.60;99.90;;;;;;5119551;27;20044;-64
2022/01/08 00:57:03;;;;;;;15.55;8.38;;;1.60;99.90;;;;;;5121647;27;20100;-64
2022/01/08 00:59:29;;;;;;;13.95;8.50;;;1.60;99.90;;;;;;5120251;27;20055;-64
2022/01/08 01:01:55;;;;;;;16.77;8.45;;;1.60;99.90;;;;;;5124230;27;20050;-64
2022/01/08 01:04:20;;;;;;;12.27;7.30;;;1.50;99.90;;;;;;5118858;28;20051;-64
2022/01/08 01:06:46;;;;;;;11.18;7.75;;;1.50;99.90;;;;;;5111904;28;20124;-64
2022/01/08 01:09:12;;;;;;;13.00;7.57;;;1.50;99.90;;;;;;5115714;28;20184;-64
2022/01/08 01:11:38;;;;;;;17.35;8.32;;;1.50;99.90;;;;;;5128078;27;20043;-64
2022/01/08 01:14:04;;;;;;;16.52;8.55;;;1.50;99.90;;;;;;5121242;27;20047;-64
2022/01/08 01:16:30;;;;;;;18.75;8.93;;;1.50;99.90;;;;;;5112830;28;20043;-64
2022/01/08 01:18:57;;;;;;;20.02;9.02;;;1.50;99.90;;;;;;5119744;28;20075;-64
2022/01/08 01:21:23;;;;;;;16.73;8.50;;;1.60;99.90;;;;;;5130153;28;20114;-64
2022/01/08 01:23:50;;;;;;;15.38;9.55;;;1.60;99.90;;;;;;5113832;27;20127;-64
2022/01/08 01:26:20;;;;;;;16.73;9.07;;;1.70;99.90;;;;;;5122795;27;20079;-64
2022/01/08 01:42:55;;;;;;;13.25;6.60;;;2.80;99.90;;;;;;5120331;27;20063;-64
2022/01/08 01:48:04;;;;;;;10.48;6.13;;;1.70;99.90;;;;;;5118294;27;20043;-64
2022/01/08 01:50:30;;;;;;;14.80;6.32;;;1.70;99.90;;;;;;5136970;27;20960;-64
2022/01/08 01:52:56;;;;;;;13.10;6.93;;;1.70;99.90;;;;;;5138045;27;20091;-64
2022/01/08 01:55:22;;;;;;;11.23;6.05;;;1.70;99.90;;;;;;5129852;27;20058;-64
2022/01/08 01:57:48;;;;;;;14.13;5.80;;;1.80;99.90;;;;;;5147412;27;20085;-64
2022/01/08 02:00:14;;;;;;;10.55;5.25;;;1.80;99.90;;;;;;5124061;27;20035;-64
2022/01/08 02:02:40;;;;;;;9.93;4.68;;;1.80;99.90;;;;;;5127455;27;20379;-64
2022/01/08 02:05:07;;;;;;;13.55;5.00;;;1.80;99.90;;;;;;5114619;28;20043;-64
2022/01/08 02:07:33;;;;;;;13.88;4.90;;;1.80;99.90;;;;;;5123314;27;20043;-64
2022/01/08 02:09:58;;;;;;;13.30;5.20;;;1.80;99.90;;;;;;5118590;27;20034;-64
2022/01/08 02:12:24;;;;;;;10.18;4.55;;;1.80;99.90;;;;;;5122004;27;20093;-64
2022/01/08 02:14:50;;;;;;;8.63;5.20;;;1.80;99.90;;;;;;5129128;27;20028;-64
2022/01/08 02:17:16;;;;;;;12.10;4.85;;;1.80;99.90;;;;;;5129866;27;20044;-64
2022/01/08 02:19:42;;;;;;;10.57;4.85;;;1.80;99.90;;;;;;5137524;27;20035;-64
2022/01/08 02:22:15;;;;;;;11.88;5.60;;;1.70;99.90;;;;;;5125285;27;20188;-64
2022/01/08 02:24:43;;;;;;;10.73;4.63;;;1.70;99.90;;;;;;5118770;27;20494;-64
2022/01/08 02:27:09;;;;;;;10.93;4.85;;;1.70;99.90;;;;;;5121358;27;20035;-64
2022/01/08 02:29:35;;;;;;;11.38;5.40;;;1.70;99.90;;;;;;5122677;27;20039;-64
2022/01/08 02:32:15;;;;;;;12.25;5.93;;;1.70;99.90;;;;;;5124530;27;20031;-64
2022/01/08 02:34:43;;;;;;;10.90;5.45;;;1.70;99.90;;;;;;5120442;27;20031;-64
2022/01/08 02:37:09;;;;;;;11.05;5.90;;;1.70;99.90;;;;;;5132240;27;20096;-64
2022/01/08 02:39:41;;;;;;;16.40;6.05;;;1.80;99.90;;;;;;5128891;27;20172;-64
2022/01/08 02:42:10;;;;;;;13.88;6.13;;;1.80;99.90;;;;;;5130675;27;20044;-64
2022/01/08 02:44:36;;;;;;;11.88;6.32;;;1.80;99.90;;;;;;5115800;27;20047;-64
2022/01/08 02:47:03;;;;;;;15.77;6.78;;;1.80;99.90;;;;;;5123980;27;20434;-64
2022/01/08 02:49:32;;;;;;;15.13;6.53;;;1.80;99.90;;;;;;5117440;27;20648;-64
2022/01/08 02:51:58;;;;;;;13.35;6.90;;;1.80;99.90;;;;;;5123947;27;20111;-64
2022/01/08 02:54:24;;;;;;;12.90;6.97;;;1.80;99.90;;;;;;5137696;27;20114;-64
2022/01/08 02:56:50;;;;;;;15.80;7.03;;;1.80;99.90;;;;;;5143423;27;20043;-64
2022/01/08 02:59:16;;;;;;;12.27;6.57;;;1.80;99.90;;;;;;5127321;27;20387;-64
2022/01/08 03:01:42;;;;;;;14.23;6.53;;;1.70;99.90;;;;;;5131496;27;20035;-64
2022/01/08 03:04:09;;;;;;;15.52;6.68;;;1.70;99.90;;;;;;5136223;27;20479;-64
2022/01/08 03:06:35;;;;;;;12.93;6.35;;;1.70;99.90;;;;;;5123335;27;20127;-64
2022/01/08 03:09:00;;;;;;;10.25;6.90;;;1.70;99.90;;;;;;5133640;27;20378;-64
2022/01/08 03:11:26;;;;;;;12.88;6.80;;;1.60;99.90;;;;;;5122224;27;20036;-64
2022/01/08 03:13:52;;;;;;;13.43;6.68;;;1.60;99.90;;;;;;5130649;27;20069;-64
2022/01/08 03:16:17;;;;;;;15.07;6.68;;;1.50;99.90;;;;;;5135179;27;20043;-64
2022/01/08 03:18:44;;;;;;;13.10;7.50;;;1.50;99.90;;;;;;5127907;27;20039;-63
2022/01/08 03:21:17;;;;;;;11.95;6.93;;;1.50;99.90;;;;;;5116914;27;20054;-63
2022/01/08 03:24:26;;;;;;;11.63;6.80;;;1.50;99.90;;;;;;5127072;27;20040;-64
2022/01/08 03:26:37;;;;;;;16.38;8.13;;;1.50;99.90;;;;;;5130078;27;20521;-64
2022/01/08 03:29:03;;;;;;;15.23;7.80;;;1.40;99.90;;;;;;5117995;27;20059;-63
2022/01/08 03:31:29;;;;;;;16.50;8.18;;;1.40;99.90;;;;;;5144631;27;20451;-64
2022/01/08 03:33:54;;;;;;;15.68;7.88;;;1.40;99.90;;;;;;5127648;27;20047;-64
2022/01/08 03:36:22;;;;;;;15.43;7.82;;;1.40;99.90;;;;;;5119640;27;20044;-63
2022/01/08 03:38:50;;;;;;;17.83;8.85;;;1.40;99.90;;;;;;5116451;27;20486;-64
2022/01/08 03:41:15;;;;;;;17.67;8.55;;;1.40;99.90;;;;;;5138404;27;20043;-64
2022/01/08 03:43:41;;;;;;;13.88;7.63;;;1.40;99.90;;;;;;5119638;27;20441;-64
2022/01/08 03:46:07;;;;;;;14.88;7.80;;;1.40;99.90;;;;;;5127765;27;20050;-63
2022/01/08 03:48:45;;;;;;;14.13;8.20;;;1.40;99.90;;;;;;5133296;27;20035;-64
2022/01/08 03:51:12;;;;;;;16.48;7.85;;;1.40;99.90;;;;;;5127250;27;20035;-63
2022/01/08 03:53:38;;;;;;;12.18;7.40;;;1.40;99.90;;;;;;5122709;27;20031;-64
2022/01/08 03:56:04;;;;;;;15.07;7.10;;;1.40;99.90;;;;;;5138107;27;20546;-63
2022/01/08 03:58:30;;;;;;;16.45;7.20;;;1.40;99.90;;;;;;5138944;27;20040;-63
2022/01/08 04:00:56;;;;;;;14.65;7.05;;;1.40;99.90;;;;;;5126850;27;20174;-64
2022/01/08 04:03:21;;;;;;;19.80;7.15;;;1.40;99.90;;;;;;5122244;27;20482;-63
2022/01/08 04:05:48;;;;;;;12.93;6.70;;;1.80;99.90;;;;;;5135691;27;20036;-63
2022/01/08 04:08:16;;;;;;;14.68;6.57;;;1.50;99.90;;;;;;5118421;27;20030;-64
2022/01/08 04:10:42;;;;;;;16.10;7.07;;;1.50;99.90;;;;;;5126404;27;20043;-64
2022/01/08 04:13:12;;;;;;;9.85;4.97;;;1.60;99.90;;;;;;5123647;27;20398;-64
2022/01/08 04:15:41;;;;;;;12.75;5.95;;;1.50;99.90;;;;;;5121609;27;20079;-64
2022/01/08 04:18:08;;;;;;;11.27;5.13;;;1.60;99.90;;;;;;5118363;27;20039;-64
2022/01/08 04:20:41;;;;;;;10.88;5.30;;;1.60;99.90;;;;;;5117616;27;20039;-64
2022/01/08 04:23:06;;;;;;;9.57;4.35;;;1.50;99.90;;;;;;5121014;27;20051;-64
2022/01/08 04:25:32;;;;;;;8.75;3.92;;;1.50;99.90;;;;;;5121813;27;20043;-64
2022/01/08 04:27:58;;;;;;;9.32;4.30;;;1.60;99.90;;;;;;5122318;27;20031;-64
2022/01/08 04:30:24;;;;;;;7.90;4.40;;;1.50;99.90;;;;;;5135850;27;20063;-64
2022/01/08 04:32:49;;;;;;;7.60;3.92;;;1.70;99.90;;;;;;5122976;27;20039;-64
2022/01/08 04:35:15;;;;;;;7.38;3.53;;;1.70;99.90;;;;;;5114867;28;20126;-64
2022/01/08 04:37:41;;;;;;;7.22;3.75;;;1.70;99.90;;;;;;5123031;27;20045;-64
2022/01/08 04:40:07;;;;;;;8.38;3.60;;;1.80;99.90;;;;;;5119623;27;20031;-64
2022/01/08 04:42:33;;;;;;;9.18;3.65;;;1.60;99.90;;;;;;5122903;27;20035;-64
2022/01/08 04:44:58;;;;;;;9.85;3.80;;;1.60;99.90;;;;;;5121635;27;20032;-64
2022/01/08 04:47:24;;;;;;;10.93;4.47;;;1.50;99.90;;;;;;5120753;27;20044;-64
2022/01/08 04:49:50;;;;;;;8.20;3.20;;;1.50;99.90;;;;;;5119081;27;20441;-64
2022/01/08 04:52:16;;;;;;;10.00;4.03;;;1.40;99.90;;;;;;5114145;27;20054;-64
2022/01/08 04:54:41;;;;;;;10.07;3.95;;;1.30;99.90;;;;;;5120796;27;20046;-64
2022/01/08 04:57:07;;;;;;;11.18;4.07;;;1.50;99.90;;;;;;5099308;27;20031;-64
2022/01/08 04:59:33;;;;;;;12.63;4.15;;;1.30;99.90;;;;;;5114948;27;20492;-63
2022/01/08 05:01:58;;;;;;;9.52;4.53;;;1.30;99.90;;;;;;5121372;27;20436;-63
2022/01/08 05:04:26;;;;;;;11.68;4.95;;;1.20;99.90;;;;;;5117401;28;20056;-64
2022/01/08 05:06:52;;;;;;;12.32;4.45;;;1.50;99.90;;;;;;5130488;28;20494;-64
2022/01/08 05:09:17;;;;;;;9.95;4.57;;;1.20;99.90;;;;;;5123283;27;20035;-63
2022/01/08 05:11:43;;;;;;;13.30;5.32;;;1.50;99.90;;;;;;5115476;27;20047;-64
2022/01/08 05:14:10;;;;;;;9.75;4.90;;;2.40;99.90;;;;;;5121447;28;20539;-64
2022/01/08 05:16:36;;;;;;;12.55;4.75;;;1.10;99.90;;;;;;5120233;28;20046;-64
2022/01/08 05:19:01;;;;;;;10.85;4.72;;;1.10;99.90;;;;;;5121900;27;20490;-64
2022/01/08 05:21:31;;;;;;;12.05;4.38;;;1.10;99.90;;;;;;5127291;28;20061;-63
2022/01/08 05:23:58;;;;;;;10.85;5.18;;;1.10;99.90;;;;;;5113397;28;20608;-63
2022/01/08 05:26:25;;;;;;;8.93;4.82;;;1.00;99.90;;;;;;5119671;28;20031;-64
2022/01/08 05:28:52;;;;;;;10.30;5.57;;;2.00;99.90;;;;;;5123377;27;20096;-63
2022/01/08 05:31:21;;;;;;;9.77;5.13;;;1.00;99.90;;;;;;5111798;28;20388;-63
2022/01/08 05:33:47;;;;;;;15.63;5.72;;;1.00;99.90;;;;;;5124783;27;20363;-63
2022/01/08 05:36:13;;;;;;;10.20;4.88;;;1.00;99.90;;;;;;5127883;27;20166;-63
2022/01/08 05:38:39;;;;;;;11.35;4.75;;;1.00;99.90;;;;;;5128957;27;20031;-63
2022/01/08 05:41:05;;;;;;;15.32;5.20;;;1.00;99.90;;;;;;5120124;27;20587;-63
2022/01/08 05:43:30;;;;;;;9.93;5.47;;;1.00;99.90;;;;;;5124380;28;20066;-64
2022/01/08 05:45:56;;;;;;;11.90;4.43;;;1.00;99.90;;;;;;5118306;27;20031;-64
2022/01/08 05:48:23;;;;;;;11.32;5.15;;;1.20;99.90;;;;;;5098520;28;20071;-64
2022/01/08 05:50:49;;;;;;;10.32;4.88;;;1.00;99.90;;;;;;5134930;27;20523;-64
2022/01/08 05:53:19;;;;;;;14.30;5.75;;;1.00;99.90;;;;;;5127204;27;20046;-63
2022/01/08 05:55:45;;;;;;;14.95;5.15;;;1.00;99.90;;;;;;5127888;27;20039;-64
2022/01/08 05:58:11;;;;;;;13.75;5.40;;;1.00;99.90;;;;;;5136086;27;20137;-63
2022/01/08 06:00:37;;;;;;;12.48;5.30;;;1.00;99.90;;;;;;5126072;27;20105;-63
2022/01/08 06:03:03;;;;;;;10.02;4.63;;;1.00;99.90;;;;;;5120281;27;20058;-63
2022/01/08 06:05:29;;;;;;;13.13;5.15;;;1.00;99.90;;;;;;5122211;27;20055;-64
2022/01/08 06:07:55;;;;;;;11.15;5.03;;;1.00;99.90;;;;;;5126390;28;20067;-64
2022/01/08 06:10:20;;;;;;;16.23;5.30;;;1.30;99.90;;;;;;5113783;27;20539;-64
2022/01/08 06:12:47;;;;;;;14.00;4.60;;;0.90;99.90;;;;;;5115135;27;20043;-63
2022/01/08 06:15:13;;;;;;;14.13;4.97;;;0.90;99.90;;;;;;5120853;27;20066;-64
2022/01/08 06:17:39;;;;;;;12.48;5.13;;;0.90;99.90;;;;;;5129283;27;20046;-64
2022/01/08 06:20:05;;;;;;;14.35;4.85;;;0.90;99.90;;;;;;5131832;27;20047;-63
2022/01/08 06:22:31;;;;;;;15.93;4.35;;;0.90;99.90;;;;;;5119191;27;20031;-63
2022/01/08 06:24:57;;;;;;;9.57;5.03;;;0.90;99.90;;;;;;5134364;27;20394;-63
2022/01/08 06:27:22;;;;;;;11.48;4.53;;;0.80;99.90;;;;;;5135959;27;20046;-64
2022/01/08 06:29:48;;;;;;;11.43;4.68;;;0.80;99.90;;;;;;5130734;27;20073;-63
2022/01/08 06:32:14;;;;;;;14.75;4.57;;;0.80;99.90;;;;;;5119398;27;20475;-64
2022/01/08 06:34:41;;;;;;;8.57;4.28;;;0.80;99.90;;;;;;5134089;27;20055;-64
2022/01/08 06:37:07;;;;;;;12.57;4.10;;;0.70;99.90;;;;;;5124893;27;20406;-63
2022/01/08 06:39:32;;;;;;;9.65;3.83;;;0.70;99.90;;;;;;5135056;27;20080;-63
2022/01/08 06:41:58;;;;;;;10.02;3.88;;;0.70;99.90;;;;;;5144340;27;20474;-63
2022/01/08 06:44:24;;;;;;;10.55;3.85;;;0.60;99.90;;;;;;5129363;27;20031;-63
2022/01/08 06:46:50;;;;;;;9.85;3.85;;;0.60;99.90;;;;;;5129962;27;20035;-64
2022/01/08 06:49:15;;;;;;;19.63;4.43;;;0.60;99.90;;;;;;5131874;27;20035;-63
2022/01/08 06:51:41;;;;;;;11.60;4.10;;;0.60;99.90;;;;;;5124634;27;20046;-63
2022/01/08 06:54:07;;;;;;;11.30;3.92;;;0.60;99.90;;;;;;5131219;27;20046;-63
2022/01/08 06:56:33;;;;;;;10.57;3.88;;;0.70;99.90;;;;;;5120050;27;20035;-64
2022/01/08 06:58:58;;;;;;;14.55;4.03;;;0.70;99.90;;;;;;5121263;27;20047;-63
2022/01/08 07:01:24;;;;;;;9.50;3.67;;;0.60;99.90;;;;;;5121748;27;20047;-63
2022/01/08 07:03:50;;;;;;;13.05;4.07;;;0.60;99.90;;;;;;5113686;27;20051;-63
2022/01/08 07:06:16;;;;;;;9.77;3.58;;;0.60;99.90;;;;;;5124991;27;20050;-64
2022/01/08 07:08:42;;;;;;;12.45;4.00;;;0.70;99.90;;;;;;5124800;27;20039;-64
2022/01/08 07:11:07;;;;;;;9.23;4.00;;;0.70;99.90;;;;;;5118139;27;20383;-64
2022/01/08 07:13:33;;;;;;;14.38;4.00;;;0.70;99.90;;;;;;5119898;27;20468;-64
2022/01/08 07:15:59;;;;;;;12.65;3.70;;;0.70;99.90;;;;;;5133645;27;20038;-64
2022/01/08 07:18:24;;;;;;;12.20;4.18;;;0.70;99.90;;;;;;5134275;27;20076;-64
2022/01/08 07:20:50;;;;;;;9.13;3.67;;;0.70;99.90;;;;;;5143412;27;20110;-64
2022/01/08 07:23:16;;;;;;;12.55;3.78;;;0.70;99.90;;;;;;5130903;27;20043;-63
2022/01/08 07:25:42;;;;;;;12.57;3.97;;;0.80;99.90;;;;;;5125050;27;20364;-63
2022/01/08 07:28:07;;;;;;;12.00;4.03;;;0.70;99.90;;;;;;5119695;27;20039;-64
2022/01/08 07:30:33;;;;;;;11.82;3.90;;;0.80;99.90;;;;;;5119481;27;20035;-64
2022/01/08 07:32:59;;;;;;;10.75;4.20;;;0.80;99.90;;;;;;5139686;27;20034;-64
2022/01/08 07:35:24;;;;;;;8.18;3.90;;;0.80;99.90;;;;;;5130099;27;20151;-64
2022/01/08 07:37:51;;;;;;;11.90;4.72;;;0.80;99.90;;;;;;5097859;27;20084;-63
2022/01/08 07:40:18;;;;;;;13.02;3.67;;;0.90;99.90;;;;;;5119409;27;20074;-64
2022/01/08 07:42:44;;;;;;;9.68;3.75;;;0.80;99.90;;;;;;5122431;27;20071;-64
2022/01/08 07:45:10;;;;;;;13.48;4.65;;;0.80;99.90;;;;;;5125763;27;20535;-64
2022/01/08 07:47:37;;;;;;;12.95;5.20;;;0.90;99.90;;;;;;5108884;27;20756;-64
2022/01/08 07:50:05;;;;;;;14.88;5.25;;;0.90;99.90;;;;;;5116515;27;20035;-64
2022/01/08 07:52:31;;;;;;;11.00;4.32;;;0.90;99.90;;;;;;5094075;28;20075;-64
2022/01/08 07:54:56;;;;;;;14.65;5.28;;;1.10;99.90;;;;;;5128681;27;20100;-64
2022/01/08 07:57:22;;;;;;;11.82;4.65;;;0.90;99.90;;;;;;5127843;27;20035;-64
2022/01/08 07:59:48;;;;;;;11.60;5.07;;;0.90;99.90;;;;;;5119664;27;20035;-64
2022/01/08 08:02:13;;;;;;;12.30;5.28;;;1.00;99.90;;;;;;5133070;27;20043;-64
2022/01/08 08:04:39;;;;;;;14.52;5.05;;;0.90;99.90;;;;;;5125057;27;20093;-64
2022/01/08 08:07:05;;;;;;;14.65;5.13;;;0.90;99.90;;;;;;5127935;27;20516;-64
2022/01/08 08:09:31;;;;;;;12.98;5.10;;;0.90;99.90;;;;;;5124387;27;20135;-64
2022/01/08 08:11:57;;;;;;;14.77;5.40;;;0.90;99.90;;;;;;5130341;27;20043;-64
2022/01/08 08:14:23;;;;;;;12.90;4.88;;;1.30;99.90;;;;;;5121472;27;20399;-64
2022/01/08 08:16:48;;;;;;;12.02;5.55;;;1.00;99.90;;;;;;5117070;27;20047;-64
2022/01/08 08:19:14;;;;;;;15.15;5.00;;;0.90;99.90;;;;;;5130483;27;20043;-64
2022/01/08 08:21:40;;;;;;;9.30;5.65;;;0.90;99.90;;;;;;5123213;27;20039;-64
2022/01/08 08:24:06;;;;;;;14.85;5.75;;;1.10;99.90;;;;;;5114711;27;20051;-64
2022/01/08 08:26:35;;;;;;;12.93;5.97;;;1.00;99.90;;;;;;5114695;27;20040;-64
2022/01/08 08:29:02;;;;;;;10.55;6.00;;;1.00;99.90;;;;;;5122620;27;20097;-64
2022/01/08 08:31:27;;;;;;;13.43;6.07;;;1.20;99.90;;;;;;5121498;27;20043;-64
2022/01/08 08:33:53;;;;;;;15.50;6.10;;;1.10;99.90;;;;;;5133180;27;20095;-64
2022/01/08 08:36:19;;;;;;;12.65;5.63;;;1.20;99.90;;;;;;5129782;27;20050;-64
2022/01/08 08:38:44;;;;;;;12.50;6.20;;;1.20;99.90;;;;;;5127602;27;20039;-64
2022/01/08 08:41:10;;;;;;;12.80;5.85;;;1.30;99.90;;;;;;5132687;27;20054;-64
2022/01/08 08:43:36;;;;;;;13.43;5.80;;;1.30;99.90;;;;;;5122318;27;20047;-64
2022/01/08 08:46:03;;;;;;;11.18;5.53;;;1.40;99.90;;;;;;5120467;27;20100;-64
2022/01/08 08:48:28;;;;;;;13.40;6.10;;;1.40;99.90;;;;;;5113779;28;20028;-64
2022/01/08 08:50:54;;;;;;;15.65;5.25;;;1.50;99.90;;;;;;5132711;27;20126;-64
2022/01/08 08:53:20;;;;;;;13.77;5.95;;;1.60;99.90;;;;;;5135357;27;20050;-64
2022/01/08 08:55:47;;;;;;;9.45;5.18;;;1.60;99.90;;;;;;5138891;27;20045;-64
2022/01/08 08:58:16;;;;;;;12.18;5.25;;;1.60;99.90;;;;;;5124533;27;20047;-64
2022/01/08 09:00:43;;;;;;;14.27;5.50;;;1.70;99.90;;;;;;5134086;27;20119;-64
2022/01/08 09:03:08;;;;;;;17.20;5.68;;;1.70;99.90;;;;;;5116625;27;20571;-64
2022/01/08 09:05:35;;;;;;;20.48;9.50;;;1.70;99.90;;;;;;5074653;28;20123;-64
2022/01/08 09:08:01;;;;;;;14.38;6.18;;;1.80;99.90;;;;;;5075213;28;20476;-64
2022/01/08 09:10:26;;;;;;;16.48;5.97;;;1.90;99.90;;;;;;5080555;28;20043;-64
2022/01/08 09:12:55;;;;;;;16.63;5.55;;;1.90;99.90;;;;;;5084708;28;20360;-64
2022/01/08 09:15:24;;;;;;;14.48;6.03;;;1.90;99.90;;;;;;5088509;28;20055;-64
2022/01/08 09:17:51;;;;;;;12.27;5.57;;;2.10;99.90;;;;;;5081424;28;20044;-64
2022/01/08 09:20:17;;;;;;;15.63;6.13;;;2.00;99.90;;;;;;5075629;28;20383;-64
2022/01/08 09:22:43;;;;;;;16.23;5.60;;;2.00;99.90;;;;;;5096622;28;20047;-64
2022/01/08 09:25:09;;;;;;;15.48;6.00;;;2.10;99.90;;;;;;5080689;28;20633;-64
2022/01/08 09:27:35;;;;;;;17.38;6.10;;;2.10;99.90;;;;;;5072557;28;20071;-64
2022/01/08 09:30:01;;;;;;;17.92;6.00;;;2.50;99.90;;;;;;5096614;28;20117;-64
2022/01/08 09:32:27;;;;;;;16.77;6.43;;;2.20;99.90;;;;;;5076414;28;20045;-64
2022/01/08 09:34:53;;;;;;;14.52;6.15;;;2.20;99.90;;;;;;5079474;28;20128;-64
2022/01/08 09:37:18;;;;;;;17.10;6.78;;;2.20;99.90;;;;;;5079948;28;20044;-64
2022/01/08 09:39:44;;;;;;;12.85;6.13;;;2.20;99.90;;;;;;5076172;28;20044;-64
2022/01/08 09:42:10;;;;;;;13.10;6.40;;;2.20;99.90;;;;;;5080304;28;20037;-64
2022/01/08 09:44:39;;;;;;;14.40;6.18;;;2.20;99.90;;;;;;5071552;28;20403;-64
2022/01/08 09:47:05;;;;;;;15.95;7.45;;;2.20;99.90;;;;;;5093353;28;20036;-64
2022/01/08 09:49:32;;;;;;;19.02;7.05;;;2.20;99.90;;;;;;5084378;28;20073;-64
2022/01/08 09:52:00;;;;;;;14.25;7.10;;;2.20;99.90;;;;;;5079616;28;20551;-64
2022/01/08 09:54:27;;;;;;;13.50;7.00;;;2.20;99.90;;;;;;5091368;28;20036;-64
2022/01/08 09:56:54;;;;;;;13.70;6.78;;;2.20;99.90;;;;;;5074749;28;20059;-64
2022/01/08 09:59:21;;;;;;;12.82;7.10;;;2.20;99.90;;;;;;5091902;28;20421;-63
2022/01/08 10:01:54;;;;;;;15.07;7.43;;;2.30;99.90;;;;;;5092683;28;20506;-64
2022/01/08 10:04:38;;;;;;;17.95;7.20;;;2.30;99.90;;;;;;5117267;27;20047;-63
2022/01/08 10:07:23;;;;;;;15.15;7.30;;;2.40;99.90;;;;;;5116031;28;20039;-64
2022/01/08 10:10:04;;;;;;;19.08;7.90;;;2.50;99.90;;;;;;5123354;27;20040;-64
2022/01/08 10:12:59;;;;;;;15.68;7.07;;;2.50;99.90;;;;;;5114094;27;20032;-64
2022/01/08 10:18:34;;;;;;;17.08;7.13;;;2.60;99.90;;;;;;5120052;27;20062;-64
2022/01/08 10:21:14;;;;;;;14.68;7.80;;;2.80;99.90;;;;;;5117258;27;20617;-64
2022/01/08 10:23:43;;;;;;;19.20;7.75;;;2.80;99.90;;;;;;5126399;27;20080;-64
2022/01/08 10:26:13;;;;;;;15.60;7.07;;;2.80;99.90;;;;;;5126442;27;20046;-63
2022/01/08 10:28:52;;;;;;;13.70;7.53;;;3.00;99.90;;;;;;5125265;27;20467;-64
2022/01/08 10:31:29;;;;;;;21.67;7.53;;;2.90;99.90;;;;;;5115767;27;20031;-64
2022/01/08 10:34:15;;;;;;;14.90;6.70;;;3.00;99.90;;;;;;5114537;27;20035;-64
2022/01/08 10:36:46;;;;;;;15.23;6.70;;;3.00;99.90;;;;;;5118267;27;20526;-64
2022/01/08 10:39:17;;;;;;;14.18;6.70;;;3.10;99.90;;;;;;5128338;27;20043;-64
2022/01/08 10:41:44;;;;;;;17.23;7.72;;;3.10;99.90;;;;;;5116316;27;20050;-64
2022/01/08 10:44:17;;;;;;;20.88;7.40;;;3.20;99.90;;;;;;5126076;27;20040;-64
2022/01/08 10:46:55;;;;;;;18.83;7.30;;;3.50;99.90;;;;;;5126084;27;20024;-64
2022/01/08 10:49:37;;;;;;;16.60;7.90;;;3.30;99.90;;;;;;5139602;27;20065;-64
2022/01/08 10:52:05;;;;;;;17.95;7.95;;;3.40;99.90;;;;;;5126127;27;20444;-64
2022/01/08 10:54:33;;;;;;;10.77;6.93;;;3.40;99.90;;;;;;5117464;27;20039;-64
2022/01/08 10:57:00;;;;;;;17.38;7.60;;;3.40;99.90;;;;;;5126766;27;20034;-64
2022/01/08 10:59:27;;;;;;;13.10;7.32;;;3.50;99.90;;;;;;5110071;27;20089;-64
2022/01/08 11:02:08;;;;;;;17.23;7.90;;;3.60;99.90;;;;;;5124598;27;20043;-64
2022/01/08 11:04:33;;;;;;;15.95;8.13;;;3.60;99.90;;;;;;5133138;27;20046;-64
2022/01/08 11:07:31;;;;;;;15.45;8.05;;;3.70;99.90;;;;;;5136141;27;20080;-64
2022/01/08 11:10:11;;;;;;;14.50;8.10;;;3.70;99.90;;;;;;5103704;27;20429;-64
2022/01/08 11:12:41;;;;;;;19.60;8.82;;;3.70;99.90;;;;;;5126275;27;20397;-64
2022/01/08 11:17:48;;;;;;;14.43;8.88;;;3.80;99.90;;;;;;5135308;27;20040;-64
2022/01/08 11:20:19;;;;;;;15.55;9.13;;;3.80;99.90;;;;;;5114893;27;20144;-64
2022/01/08 11:22:47;;;;;;;14.10;8.88;;;3.80;99.90;;;;;;5123328;27;20024;-65
2022/01/08 11:25:25;;;;;;;19.58;10.05;;;3.90;99.90;;;;;;5120202;27;20047;-65
2022/01/08 11:28:10;;;;;;;17.33;9.50;;;3.90;99.90;;;;;;5124994;27;20075;-64
2022/01/08 11:30:49;;;;;;;19.27;10.60;;;3.90;99.90;;;;;;5114773;27;20169;-65
2022/01/08 11:33:31;;;;;;;17.70;10.07;;;3.90;99.90;;;;;;5123229;27;20289;-65
2022/01/08 11:35:58;;;;;;;18.55;10.82;;;4.00;99.90;;;;;;5128682;27;20046;-64
2022/01/08 11:38:27;;;;;;;20.08;11.70;;;3.90;99.90;;;;;;5118179;27;20092;-65
2022/01/08 11:40:55;;;;;;;19.42;11.60;;;3.90;99.90;;;;;;5128213;27;20111;-64
2022/01/08 11:43:23;;;;;;;24.58;13.18;;;3.90;99.90;;;;;;5117553;27;20039;-64
2022/01/08 11:45:58;;;;;;;23.92;13.10;;;4.00;99.90;;;;;;5136855;27;20031;-64
2022/01/08 11:48:34;;;;;;;21.05;12.52;;;4.10;99.90;;;;;;5135462;27;20058;-65
2022/01/08 11:51:01;;;;;;;22.92;13.10;;;4.00;99.90;;;;;;5135072;27;20027;-65
2022/01/08 11:53:44;;;;;;;21.27;13.15;;;4.20;99.90;;;;;;5128729;27;20126;-65
2022/01/08 11:56:25;;;;;;;22.58;14.07;;;4.10;99.90;;;;;;5131418;27;20050;-65
2022/01/08 11:59:04;;;;;;;23.83;15.00;;;4.10;99.90;;;;;;5116153;27;20047;-64
2022/01/08 12:01:30;;;;;;;19.02;13.98;;;4.20;99.90;;;;;;5108675;27;20168;-65
2022/01/08 12:03:56;;;;;;;20.00;13.93;;;4.20;99.90;;;;;;5133982;27;20513;-65
2022/01/08 12:06:33;;;;;;;25.75;15.32;;;4.30;99.90;;;;;;5130915;27;20040;-64
2022/01/08 12:09:25;;;;;;;25.55;15.32;;;4.40;99.90;;;;;;5117149;27;20157;-65
2022/01/08 12:11:51;;;;;;;24.30;14.38;;;4.20;99.90;;;;;;5138789;27;20397;-65
2022/01/08 12:14:19;;;;;;;24.15;14.07;;;4.40;99.90;;;;;;5138815;27;20043;-65
2022/01/08 12:16:50;;;;;;;20.33;14.93;;;4.10;99.90;;;;;;5137987;27;20445;-65
2022/01/08 12:19:34;;;;;;;23.63;14.75;;;4.10;99.90;;;;;;5134081;27;20055;-64
2022/01/08 12:22:16;;;;;;;20.75;13.52;;;4.10;99.90;;;;;;5125830;27;20031;-65
2022/01/08 12:24:49;;;;;;;17.40;13.07;;;4.30;99.90;;;;;;5140935;27;20044;-65
2022/01/08 12:27:33;;;;;;;23.38;14.55;;;4.10;99.90;;;;;;5119182;27;20556;-65
2022/01/08 12:30:01;;;;;;;25.27;15.55;;;4.10;99.90;;;;;;5121681;27;20035;-64
2022/01/08 12:32:45;;;;;;;19.73;13.10;;;4.10;99.90;;;;;;5130952;27;20505;-65
2022/01/08 12:35:25;;;;;;;17.17;12.60;;;4.40;99.90;;;;;;5129982;27;20048;-65
2022/01/08 12:37:59;;;;;;;18.23;12.27;;;4.20;99.90;;;;;;5124598;27;20116;-65
2022/01/08 12:40:32;;;;;;;16.27;11.55;;;4.20;99.90;;;;;;5130490;27;20031;-64
2022/01/08 12:42:58;;;;;;;18.02;12.23;;;4.30;99.90;;;;;;5148804;27;20491;-65
2022/01/08 12:45:33;;;;;;;19.05;11.98;;;4.30;99.90;;;;;;5133094;27;20039;-65
2022/01/08 12:48:00;;;;;;;19.97;10.90;;;4.30;99.90;;;;;;5113188;28;20096;-65
2022/01/08 12:50:29;;;;;;;21.25;11.32;;;4.30;99.90;;;;;;5110643;28;20127;-65
2022/01/08 12:53:06;;;;;;;15.40;9.65;;;4.30;99.90;;;;;;5126774;27;20058;-65
2022/01/08 12:55:43;;;;;;;15.63;9.43;;;4.40;99.90;;;;;;5124557;27;20066;-65
2022/01/08 12:58:14;;;;;;;16.27;9.63;;;4.30;99.90;;;;;;5111760;28;20039;-64
2022/01/08 13:01:00;;;;;;;16.42;11.00;;;4.30;99.90;;;;;;5127923;27;20133;-65
2022/01/08 13:03:29;;;;;;;16.70;10.48;;;4.40;99.90;;;;;;5124336;27;20054;-65
2022/01/08 13:05:57;;;;;;;17.70;10.35;;;4.30;99.90;;;;;;5129970;27;20043;-65
2022/01/08 13:08:24;;;;;;;20.00;10.75;;;4.30;99.90;;;;;;5122638;28;20391;-65
2022/01/08 13:10:56;;;;;;;18.25;10.35;;;4.30;99.90;;;;;;5106593;27;20044;-65
2022/01/08 13:13:24;;;;;;;19.23;10.52;;;4.30;99.90;;;;;;5112433;28;20465;-65